createdAt,value
2018-01-26T00:02:33.317Z,20.80
2018-01-26T00:05:07.804Z,21.17
2018-01-26T00:07:41.481Z,17.23
2018-01-26T00:10:16.021Z,19.07
2018-01-26T00:12:50.166Z,9.60
2018-01-26T00:15:24.913Z,23.43
2018-01-26T00:17:59.616Z,13.00
2018-01-26T00:20:33.625Z,8.47
2018-01-26T00:23:07.443Z,7.33
2018-01-26T00:25:41.403Z,11.60
2018-01-26T00:28:15.388Z,7.43
2018-01-26T00:30:49.942Z,11.27
2018-01-26T00:33:24.692Z,13.63
2018-01-26T00:35:59.216Z,14.47
2018-01-26T00:38:34.348Z,7.60
2018-01-26T00:41:08.452Z,8.70
2018-01-26T00:43:42.993Z,18.60
2018-01-26T00:46:17.021Z,4.73
2018-01-26T00:48:50.934Z,10.30
2018-01-26T00:51:25.509Z,12.77
2018-01-26T00:53:59.577Z,9.17
2018-01-26T00:56:33.452Z,7.47
2018-01-26T00:59:07.455Z,11.63
2018-01-26T01:01:41.384Z,13.17
2018-01-26T01:04:15.179Z,5.47
2018-01-26T01:06:49.199Z,9.33
2018-01-26T01:09:23.913Z,9.57
2018-01-26T01:11:57.902Z,13.17
2018-01-26T01:14:32.423Z,12.37
2018-01-26T01:17:07.349Z,16.90
2018-01-26T01:19:41.411Z,11.93
2018-01-26T01:22:15.262Z,8.60
2018-01-26T01:24:49.814Z,6.67
2018-01-26T01:27:24.419Z,11.57
2018-01-26T01:29:59.777Z,7.93
2018-01-26T01:32:34.158Z,13.27
2018-01-26T01:35:07.985Z,6.90
2018-01-26T01:37:41.970Z,6.53
2018-01-26T01:40:15.963Z,6.40
2018-01-26T01:42:49.672Z,8.03
2018-01-26T01:45:24.502Z,6.07
2018-01-26T01:48:00.164Z,7.83
2018-01-26T01:50:35.070Z,7.40
2018-01-26T01:53:09.328Z,9.90
2018-01-26T01:55:44.004Z,12.77
2018-01-26T01:58:18.042Z,5.60
2018-01-26T02:00:53.418Z,7.53
2018-01-26T02:03:27.368Z,5.37
2018-01-26T02:06:01.969Z,6.07
2018-01-26T02:08:36.269Z,6.33
2018-01-26T02:11:10.001Z,5.40
2018-01-26T02:13:43.770Z,5.93
2018-01-26T02:16:18.029Z,4.67
2018-01-26T02:18:51.793Z,8.67
2018-01-26T02:21:27.208Z,5.13
2018-01-26T02:24:01.572Z,6.50
2018-01-26T02:26:35.389Z,4.80
2018-01-26T02:29:09.275Z,7.63
2018-01-26T02:31:43.805Z,5.03
2018-01-26T02:34:17.879Z,6.53
2018-01-26T02:36:52.524Z,6.80
2018-01-26T02:39:27.200Z,8.50
2018-01-26T02:42:01.577Z,5.07
2018-01-26T02:44:35.277Z,5.20
2018-01-26T02:47:10.071Z,4.30
2018-01-26T02:49:44.699Z,8.93
2018-01-26T02:52:18.980Z,5.30
2018-01-26T02:54:53.850Z,4.70
2018-01-26T02:57:28.686Z,8.07
2018-01-26T03:00:03.412Z,5.47
2018-01-26T03:02:38.947Z,6.30
2018-01-26T03:05:12.764Z,5.30
2018-01-26T03:07:48.227Z,5.97
2018-01-26T03:10:23.058Z,7.43
2018-01-26T03:12:57.887Z,8.53
2018-01-26T03:15:32.027Z,9.37
2018-01-26T03:18:05.928Z,6.73
2018-01-26T03:20:40.422Z,10.03
2018-01-26T03:23:16.287Z,5.97
2018-01-26T03:25:50.238Z,5.60
2018-01-26T03:28:24.162Z,4.90
2018-01-26T03:30:58.849Z,4.00
2018-01-26T03:33:33.665Z,6.47
2018-01-26T03:36:07.579Z,4.87
2018-01-26T03:38:41.673Z,5.33
2018-01-26T03:41:15.471Z,5.53
2018-01-26T03:43:50.206Z,4.17
2018-01-26T03:46:24.100Z,5.30
2018-01-26T03:48:58.784Z,3.77
2018-01-26T03:51:32.572Z,4.47
2018-01-26T03:54:07.380Z,3.33
2018-01-26T03:56:41.962Z,5.40
2018-01-26T03:59:15.652Z,3.87
2018-01-26T04:01:49.605Z,3.83
2018-01-26T04:04:24.232Z,3.80
2018-01-26T04:06:58.029Z,3.17
2018-01-26T04:09:32.072Z,3.53
2018-01-26T04:12:05.992Z,2.63
2018-01-26T04:14:39.716Z,4.17
2018-01-26T04:17:13.588Z,3.97
2018-01-26T04:19:49.052Z,6.53
2018-01-26T04:22:23.732Z,7.07
2018-01-26T04:24:57.759Z,3.07
2018-01-26T04:27:31.600Z,4.13
2018-01-26T04:30:06.761Z,5.43
2018-01-26T04:32:41.412Z,4.10
2018-01-26T04:35:16.146Z,3.80
2018-01-26T04:37:50.232Z,4.00
2018-01-26T04:40:24.187Z,3.73
2018-01-26T04:42:57.917Z,4.67
2018-01-26T04:45:32.045Z,5.17
2018-01-26T04:48:05.960Z,5.83
2018-01-26T04:50:39.851Z,3.47
2018-01-26T04:53:14.383Z,3.60
2018-01-26T04:55:48.267Z,5.60
2018-01-26T04:58:22.882Z,5.47
2018-01-26T05:00:56.742Z,4.23
2018-01-26T05:03:30.405Z,6.97
2018-01-26T05:06:04.642Z,4.10
2018-01-26T05:08:39.002Z,4.03
2018-01-26T05:11:12.838Z,5.40
2018-01-26T05:13:47.009Z,4.93
2018-01-26T05:16:21.657Z,4.23
2018-01-26T05:18:56.360Z,5.30
2018-01-26T05:21:30.327Z,6.10
2018-01-26T05:24:04.137Z,4.23
2018-01-26T05:26:38.830Z,3.67
2018-01-26T05:29:12.909Z,4.30
2018-01-26T05:31:46.746Z,3.60
2018-01-26T05:34:20.557Z,4.47
2018-01-26T05:36:54.631Z,4.03
2018-01-26T05:39:28.387Z,6.40
2018-01-26T05:42:02.180Z,7.47
2018-01-26T05:44:35.984Z,6.87
2018-01-26T05:47:09.742Z,6.17
2018-01-26T05:49:44.416Z,3.40
2018-01-26T05:52:18.359Z,4.20
2018-01-26T05:54:53.105Z,3.30
2018-01-26T05:57:28.266Z,6.63
2018-01-26T06:00:03.566Z,13.10
2018-01-26T06:02:37.266Z,8.13
2018-01-26T06:05:11.515Z,10.00
2018-01-26T06:07:46.260Z,6.77
2018-01-26T06:10:21.150Z,6.27
2018-01-26T06:12:55.257Z,3.43
2018-01-26T06:15:29.434Z,4.73
2018-01-26T06:18:04.045Z,6.00
2018-01-26T06:20:38.070Z,7.70
2018-01-26T06:23:12.214Z,7.30
2018-01-26T06:25:47.692Z,7.43
2018-01-26T06:28:21.773Z,6.20
2018-01-26T06:30:55.782Z,3.40
2018-01-26T06:33:31.358Z,4.13
2018-01-26T06:36:05.240Z,4.93
2018-01-26T06:38:39.812Z,5.40
2018-01-26T06:41:13.660Z,15.90
2018-01-26T06:43:48.234Z,6.00
2018-01-26T06:46:22.268Z,4.40
2018-01-26T06:48:56.964Z,6.37
2018-01-26T06:51:31.770Z,4.33
2018-01-26T06:54:07.050Z,6.97
2018-01-26T06:56:41.128Z,5.63
2018-01-26T06:59:14.928Z,5.60
2018-01-26T07:01:49.850Z,7.80
2018-01-26T07:04:24.028Z,10.53
2018-01-26T07:06:57.789Z,7.40
2018-01-26T07:09:32.331Z,5.87
2018-01-26T07:12:06.543Z,6.37
2018-01-26T07:14:40.494Z,5.20
2018-01-26T07:17:14.688Z,8.60
2018-01-26T07:19:49.282Z,7.43
2018-01-26T07:22:24.409Z,12.13
2018-01-26T07:24:58.488Z,8.03
2018-01-26T07:27:33.127Z,6.80
2018-01-26T07:30:07.644Z,5.97
2018-01-26T07:32:42.079Z,12.03
2018-01-26T07:35:16.820Z,7.70
2018-01-26T07:37:51.726Z,14.00
2018-01-26T07:40:26.708Z,11.60
2018-01-26T07:43:02.122Z,9.60
2018-01-26T07:45:36.775Z,16.93
2018-01-26T07:48:10.832Z,8.03
2018-01-26T07:50:44.834Z,8.00
2018-01-26T07:53:19.515Z,9.80
2018-01-26T07:55:53.395Z,8.10
2018-01-26T07:58:27.962Z,7.10
2018-01-26T08:01:02.104Z,10.97
2018-01-26T08:03:36.642Z,8.30
2018-01-26T08:06:10.570Z,21.10
2018-01-26T08:08:44.574Z,14.03
2018-01-26T08:11:20.150Z,10.27
2018-01-26T08:13:54.157Z,16.50
2018-01-26T08:16:28.043Z,8.07
2018-01-26T08:19:02.086Z,12.77
2018-01-26T08:21:36.821Z,18.63
2018-01-26T08:24:11.020Z,19.13
2018-01-26T08:26:45.136Z,13.47
2018-01-26T08:29:18.914Z,9.83
2018-01-26T08:31:53.570Z,11.13
2018-01-26T08:34:27.659Z,13.20
2018-01-26T08:37:02.308Z,13.93
2018-01-26T08:39:36.139Z,9.73
2018-01-26T08:42:10.744Z,7.90
2018-01-26T08:44:44.766Z,14.30
2018-01-26T08:47:18.767Z,6.67
2018-01-26T08:49:54.052Z,6.10
2018-01-26T08:52:28.133Z,11.23
2018-01-26T08:55:02.837Z,6.50
2018-01-26T08:57:36.896Z,6.33
2018-01-26T09:00:10.863Z,6.63
2018-01-26T09:02:44.930Z,9.50
2018-01-26T09:05:19.434Z,6.13
2018-01-26T09:07:53.810Z,11.00
2018-01-26T09:10:27.589Z,7.83
2018-01-26T09:13:02.131Z,9.43
2018-01-26T09:15:36.215Z,12.03
2018-01-26T09:18:10.098Z,9.67
2018-01-26T09:20:44.732Z,6.93
2018-01-26T09:23:19.027Z,10.07
2018-01-26T09:25:52.827Z,5.93
2018-01-26T09:28:26.961Z,7.10
2018-01-26T09:31:01.398Z,7.97
2018-01-26T09:33:35.347Z,5.13
2018-01-26T09:36:09.432Z,6.20
2018-01-26T09:38:44.201Z,9.50
2018-01-26T09:41:17.984Z,9.37
2018-01-26T09:43:52.693Z,21.90
2018-01-26T09:46:26.620Z,8.23
2018-01-26T09:49:00.483Z,4.30
2018-01-26T09:51:34.881Z,5.37
2018-01-26T09:54:08.821Z,3.90
2018-01-26T09:56:42.624Z,7.07
2018-01-26T09:59:16.502Z,6.20
2018-01-26T10:01:51.160Z,7.87
2018-01-26T10:04:25.325Z,8.57
2018-01-26T10:06:59.113Z,5.83
2018-01-26T10:09:33.724Z,8.00
2018-01-26T10:12:08.732Z,5.67
2018-01-26T10:14:42.829Z,9.13
2018-01-26T10:17:17.373Z,8.17
2018-01-26T10:19:51.431Z,7.17
2018-01-26T10:22:25.983Z,6.90
2018-01-26T10:25:00.048Z,6.60
2018-01-26T10:27:34.043Z,6.47
2018-01-26T10:30:08.838Z,5.63
2018-01-26T10:32:43.527Z,3.87
2018-01-26T10:35:18.244Z,9.07
2018-01-26T10:37:51.901Z,6.57
2018-01-26T10:40:26.362Z,8.43
2018-01-26T10:43:00.769Z,4.87
2018-01-26T10:45:34.813Z,4.47
2018-01-26T10:48:08.663Z,3.93
2018-01-26T10:50:43.241Z,5.40
2018-01-26T10:53:17.522Z,6.47
2018-01-26T10:55:51.577Z,5.13
2018-01-26T10:58:26.853Z,4.27
2018-01-26T11:01:02.285Z,4.93
2018-01-26T11:03:37.646Z,5.33
2018-01-26T11:06:12.388Z,8.63
2018-01-26T11:08:46.935Z,9.47
2018-01-26T11:11:20.977Z,6.77
2018-01-26T11:13:54.841Z,6.57
2018-01-26T11:16:29.328Z,8.33
2018-01-26T11:19:03.351Z,8.13
2018-01-26T11:21:38.045Z,5.13
2018-01-26T11:24:12.111Z,10.57
2018-01-26T11:26:45.909Z,12.23
2018-01-26T11:29:21.337Z,8.33
2018-01-26T11:31:55.482Z,6.73
2018-01-26T11:34:29.277Z,6.83
2018-01-26T11:37:03.870Z,7.53
2018-01-26T11:39:38.674Z,9.27
2018-01-26T11:42:12.650Z,9.27
2018-01-26T11:44:46.462Z,6.67
2018-01-26T11:47:20.228Z,7.33
2018-01-26T11:49:55.016Z,5.77
2018-01-26T11:52:29.884Z,6.53
2018-01-26T11:55:04.973Z,5.43
2018-01-26T11:57:38.749Z,5.63
2018-01-26T12:00:12.554Z,7.97
2018-01-26T12:02:47.485Z,6.33
2018-01-26T12:05:22.467Z,6.47
2018-01-26T12:07:56.658Z,6.80
2018-01-26T12:10:30.411Z,5.37
2018-01-26T12:13:05.458Z,6.10
2018-01-26T12:15:39.592Z,5.83
2018-01-26T12:18:14.623Z,6.27
2018-01-26T12:20:48.581Z,7.30
2018-01-26T12:23:22.517Z,7.67
2018-01-26T12:25:56.242Z,7.23
2018-01-26T12:28:30.739Z,9.77
2018-01-26T12:31:04.762Z,5.93
2018-01-26T12:33:38.728Z,10.00
2018-01-26T12:36:13.555Z,10.17
2018-01-26T12:38:47.544Z,8.33
2018-01-26T12:41:21.205Z,7.37
2018-01-26T12:43:55.740Z,9.70
2018-01-26T12:46:29.793Z,5.83
2018-01-26T12:49:04.467Z,7.33
2018-01-26T12:51:38.600Z,9.53
2018-01-26T12:54:12.524Z,6.97
2018-01-26T12:56:46.339Z,9.67
2018-01-26T12:59:20.040Z,7.73
2018-01-26T13:01:53.825Z,6.83
2018-01-26T13:04:27.697Z,7.60
2018-01-26T13:07:02.361Z,5.33
2018-01-26T13:09:36.249Z,6.97
2018-01-26T13:12:10.801Z,7.10
2018-01-26T13:14:44.686Z,11.77
2018-01-26T13:17:18.425Z,8.63
2018-01-26T13:19:52.391Z,7.90
2018-01-26T13:22:26.337Z,6.60
2018-01-26T13:25:00.137Z,8.80
2018-01-26T13:27:33.970Z,7.93
2018-01-26T13:30:07.954Z,8.23
2018-01-26T13:32:42.392Z,8.17
2018-01-26T13:35:16.163Z,5.27
2018-01-26T13:37:49.928Z,7.57
2018-01-26T13:40:23.790Z,7.33
2018-01-26T13:42:58.386Z,8.07
2018-01-26T13:45:32.069Z,9.63
2018-01-26T13:48:05.884Z,4.33
2018-01-26T13:50:39.937Z,6.30
2018-01-26T13:53:13.745Z,6.37
2018-01-26T13:55:48.639Z,13.23
2018-01-26T13:58:22.757Z,6.83
2018-01-26T14:00:56.472Z,6.87
2018-01-26T14:03:30.256Z,6.73
2018-01-26T14:06:04.885Z,5.97
2018-01-26T14:08:38.950Z,8.30
2018-01-26T14:11:12.869Z,10.30
2018-01-26T14:13:47.507Z,10.33
2018-01-26T14:16:22.254Z,12.30
2018-01-26T14:18:56.422Z,10.40
2018-01-26T14:21:30.264Z,12.27
2018-01-26T14:24:04.994Z,7.03
2018-01-26T14:26:39.174Z,10.07
2018-01-26T14:29:14.432Z,10.63
2018-01-26T14:31:48.669Z,10.83
2018-01-26T14:34:23.418Z,8.70
2018-01-26T14:36:58.024Z,11.97
2018-01-26T14:39:33.135Z,9.03
2018-01-26T14:42:07.409Z,6.70
2018-01-26T14:44:41.955Z,10.47
2018-01-26T14:47:16.023Z,7.53
2018-01-26T14:49:49.728Z,8.83
2018-01-26T14:52:23.406Z,8.20
2018-01-26T14:54:57.195Z,9.07
2018-01-26T14:57:31.016Z,11.23
2018-01-26T15:00:04.980Z,7.37
2018-01-26T15:02:40.471Z,9.60
2018-01-26T15:05:14.475Z,9.67
2018-01-26T15:07:48.538Z,8.60
2018-01-26T15:10:22.484Z,13.70
2018-01-26T15:12:57.973Z,9.30
2018-01-26T15:15:31.804Z,9.87
2018-01-26T15:18:06.745Z,12.27
2018-01-26T15:20:40.886Z,9.90
2018-01-26T15:23:14.990Z,10.17
2018-01-26T15:25:49.320Z,12.47
2018-01-26T15:28:23.132Z,6.57
2018-01-26T15:30:56.908Z,16.63
2018-01-26T15:33:30.679Z,7.50
2018-01-26T15:36:05.351Z,10.80
2018-01-26T15:38:39.223Z,10.33
2018-01-26T15:41:12.986Z,9.37
2018-01-26T15:43:46.852Z,10.50
2018-01-26T15:46:20.752Z,8.17
2018-01-26T15:48:55.497Z,12.63
2018-01-26T15:51:29.386Z,13.00
2018-01-26T15:54:03.423Z,12.37
2018-01-26T15:56:37.153Z,7.70
2018-01-26T15:59:12.058Z,12.83
2018-01-26T16:01:46.641Z,8.97
2018-01-26T16:04:21.246Z,12.00
2018-01-26T16:06:55.250Z,9.40
2018-01-26T16:09:29.029Z,10.60
2018-01-26T16:12:03.824Z,11.53
2018-01-26T16:14:38.571Z,13.20
2018-01-26T16:17:12.314Z,10.07
2018-01-26T16:19:46.173Z,9.87
2018-01-26T16:22:19.965Z,18.20
2018-01-26T16:24:53.674Z,10.60
2018-01-26T16:27:28.445Z,13.00
2018-01-26T16:30:03.839Z,9.97
2018-01-26T16:32:37.790Z,10.73
2018-01-26T16:35:11.653Z,10.33
2018-01-26T16:37:45.769Z,11.43
2018-01-26T16:40:20.539Z,11.90
2018-01-26T16:42:55.761Z,13.77
2018-01-26T16:45:29.957Z,14.20
2018-01-26T16:48:04.497Z,9.97
2018-01-26T16:50:38.549Z,11.27
2018-01-26T16:53:14.042Z,9.23
2018-01-26T16:55:48.387Z,12.87
2018-01-26T16:58:22.983Z,8.67
2018-01-26T17:00:58.447Z,8.43
2018-01-26T17:03:33.160Z,8.37
2018-01-26T17:06:07.946Z,13.53
2018-01-26T17:08:42.028Z,11.37
2018-01-26T17:11:15.988Z,12.20
2018-01-26T17:13:50.613Z,14.07
2018-01-26T17:16:25.849Z,15.97
2018-01-26T17:18:59.810Z,9.83
2018-01-26T17:21:33.724Z,11.97
2018-01-26T17:24:08.263Z,10.53
2018-01-26T17:26:42.267Z,16.90
2018-01-26T17:29:16.847Z,12.00
2018-01-26T17:31:51.111Z,21.13
2018-01-26T17:34:24.898Z,9.40
2018-01-26T17:36:58.697Z,13.17
2018-01-26T17:39:32.745Z,8.17
2018-01-26T17:42:06.760Z,7.90
2018-01-26T17:44:40.632Z,15.33
2018-01-26T17:47:14.415Z,10.80
2018-01-26T17:49:49.240Z,10.83
2018-01-26T17:52:23.417Z,15.80
2018-01-26T17:54:57.206Z,12.03
2018-01-26T17:57:31.922Z,25.27
2018-01-26T18:00:06.243Z,14.03
2018-01-26T18:02:40.722Z,14.80
2018-01-26T18:05:15.256Z,10.43
2018-01-26T18:07:50.080Z,10.33
2018-01-26T18:10:24.156Z,8.30
2018-01-26T18:12:57.948Z,9.17
2018-01-26T18:15:32.020Z,9.07
2018-01-26T18:18:06.084Z,9.77
2018-01-26T18:20:40.233Z,15.17
2018-01-26T18:23:14.310Z,8.93
2018-01-26T18:25:48.736Z,10.07
2018-01-26T18:28:23.565Z,10.20
2018-01-26T18:30:59.045Z,10.93
2018-01-26T18:33:33.057Z,8.43
2018-01-26T18:36:06.817Z,13.70
2018-01-26T18:38:42.540Z,9.93
2018-01-26T18:41:20.145Z,6.53
2018-01-26T18:43:54.363Z,7.70
2018-01-26T18:46:28.289Z,9.90
2018-01-26T18:49:02.258Z,10.37
2018-01-26T18:51:36.714Z,7.87
2018-01-26T18:54:10.907Z,5.87
2018-01-26T18:56:44.772Z,7.50
2018-01-26T18:59:19.222Z,6.97
2018-01-26T19:01:53.127Z,6.77
2018-01-26T19:04:27.996Z,8.40
2018-01-26T19:07:03.357Z,5.80
2018-01-26T19:09:38.240Z,6.67
2018-01-26T19:12:13.335Z,6.93
2018-01-26T19:14:47.662Z,9.47
2018-01-26T19:17:22.376Z,6.80
2018-01-26T19:19:56.394Z,6.83
2018-01-26T19:22:30.142Z,5.67
2018-01-26T19:25:04.299Z,10.20
2018-01-26T19:27:38.811Z,7.53
2018-01-26T19:30:13.042Z,7.57
2018-01-26T19:32:46.904Z,7.00
2018-01-26T19:35:21.540Z,7.03
2018-01-26T19:37:55.577Z,7.67
2018-01-26T19:40:29.433Z,13.90
2018-01-26T19:43:03.181Z,12.60
2018-01-26T19:45:37.019Z,13.70
2018-01-26T19:48:10.791Z,12.07
2018-01-26T19:50:44.690Z,12.87
2018-01-26T19:53:19.312Z,13.63
2018-01-26T19:55:54.308Z,17.10
2018-01-26T19:58:28.403Z,17.67
2018-01-26T20:01:02.394Z,14.43
2018-01-26T20:03:37.217Z,18.33
2018-01-26T20:06:28.843Z,18.30
2018-01-26T20:09:03.876Z,18.63
2018-01-26T20:11:38.834Z,15.87
2018-01-26T20:14:19.242Z,16.67
2018-01-26T20:16:53.646Z,19.50
2018-01-26T20:19:27.313Z,20.33
2018-01-26T20:22:01.242Z,17.53
2018-01-26T20:24:35.024Z,22.53
2018-01-26T20:27:08.829Z,17.67
2018-01-26T20:29:43.531Z,21.03
2018-01-26T20:32:19.643Z,23.27
2018-01-26T20:34:53.504Z,23.20
2018-01-26T20:37:27.226Z,19.07
2018-01-26T20:40:00.991Z,22.63
2018-01-26T20:42:34.802Z,20.97
2018-01-26T20:45:09.425Z,24.93
2018-01-26T20:47:43.612Z,23.03
2018-01-26T20:50:17.660Z,22.70
2018-01-26T20:52:52.125Z,23.77
2018-01-26T20:55:26.119Z,22.30
2018-01-26T20:58:00.295Z,21.93
2018-01-26T21:00:34.958Z,27.60
2018-01-26T21:03:09.340Z,26.20
2018-01-26T21:05:44.575Z,23.77
2018-01-26T21:08:19.892Z,19.93
2018-01-26T21:10:53.807Z,16.47
2018-01-26T21:13:27.717Z,23.17
2018-01-26T21:16:02.243Z,16.27
2018-01-26T21:18:37.355Z,14.87
2018-01-26T21:21:11.449Z,15.47
2018-01-26T21:23:46.056Z,22.33
2018-01-26T21:26:20.180Z,26.87
2018-01-26T21:28:53.950Z,26.43
2018-01-26T21:31:28.593Z,23.93
2018-01-26T21:34:02.751Z,25.87
2018-01-26T21:36:36.375Z,26.07
2018-01-26T21:39:11.360Z,27.07
2018-01-26T21:41:45.261Z,21.47
2018-01-26T21:44:19.315Z,16.00
2018-01-26T21:46:53.854Z,18.53
2018-01-26T21:49:28.091Z,15.77
2018-01-26T21:52:02.813Z,17.17
2018-01-26T21:54:36.557Z,19.37
2018-01-26T21:57:10.375Z,17.90
2018-01-26T21:59:44.898Z,22.43
2018-01-26T22:02:18.781Z,16.47
2018-01-26T22:04:59.137Z,18.70
2018-01-26T22:07:40.256Z,14.17
2018-01-26T22:10:14.686Z,15.67
2018-01-26T22:12:49.924Z,14.30
2018-01-26T22:15:24.170Z,15.67
2018-01-26T22:17:58.391Z,15.67
2018-01-26T22:20:32.305Z,15.00
2018-01-26T22:23:06.475Z,14.73
2018-01-26T22:25:40.699Z,13.63
2018-01-26T22:28:14.584Z,17.87
2018-01-26T22:30:49.358Z,20.47
2018-01-26T22:33:23.276Z,14.33
2018-01-26T22:35:57.303Z,19.87
2018-01-26T22:38:31.028Z,17.63
2018-01-26T22:41:04.847Z,14.37
2018-01-26T22:43:39.402Z,18.53
2018-01-26T22:46:14.510Z,16.37
2018-01-26T22:48:48.490Z,18.13
2018-01-26T22:51:23.091Z,14.43
2018-01-26T22:53:57.514Z,17.47
2018-01-26T22:56:32.166Z,31.80
2018-01-26T22:59:06.925Z,16.53
2018-01-26T23:01:42.052Z,19.33
2018-01-26T23:04:16.502Z,18.57
2018-01-26T23:06:50.865Z,20.70
2018-01-26T23:09:24.597Z,16.67
2018-01-26T23:11:58.524Z,21.50
2018-01-26T23:14:33.964Z,20.83
2018-01-26T23:17:08.093Z,17.50
2018-01-26T23:19:41.962Z,18.10
2018-01-26T23:22:16.678Z,22.90
2018-01-26T23:24:50.578Z,19.07
2018-01-26T23:27:24.638Z,20.93
2018-01-26T23:29:58.764Z,19.43
2018-01-26T23:32:32.579Z,23.67
2018-01-26T23:35:06.358Z,19.50
2018-01-26T23:37:40.990Z,18.27
2018-01-26T23:40:15.107Z,21.13
2018-01-26T23:42:50.339Z,23.33
2018-01-26T23:45:25.688Z,22.37
2018-01-26T23:48:00.045Z,20.57
2018-01-26T23:50:33.784Z,16.43
2018-01-26T23:53:08.340Z,20.33
2018-01-26T23:55:42.376Z,20.07
2018-01-26T23:58:16.205Z,19.50
